Time;durP1;ratioP1;P1;durP2;ratioP2;P2;SDS_P1;SDS_P2;PMS_P1;PMS_P2;Temp;Humidity;BMP_temperature;BMP_pressure;BME280_temperature;BME280_humidity;BME280_pressure;Samples;Min_cycle;Max_cycle;Signal;HPM_P1;HPM_P2
2022/10/02 00:00:15;;;;;;;5.75;4.92;;;;;;;15.04;100.00;98829.95;1640832;86;21032;-74
2022/10/02 00:02:50;;;;;;;10.35;5.03;;;;;;;15.03;100.00;98825.64;1639373;86;21107;-74
2022/10/02 00:05:36;;;;;;;5.87;4.77;;;;;;;15.06;100.00;98816.36;1636465;87;21052;-73
2022/10/02 00:08:14;;;;;;;5.92;4.08;;;;;;;15.12;100.00;98817.88;1638079;86;21166;-74
2022/10/02 00:10:51;;;;;;;5.72;3.98;;;;;;;15.16;100.00;98824.28;1652215;86;21032;-74
2022/10/02 00:13:47;;;;;;;4.92;4.42;;;;;;;15.18;100.00;98838.89;1655499;85;21074;-74
2022/10/02 00:16:38;;;;;;;4.90;4.40;;;;;;;15.22;100.00;98849.38;1673490;85;21028;-74
2022/10/02 00:19:09;;;;;;;4.60;4.20;;;;;;;15.19;100.00;98845.92;1651186;86;21517;-73
2022/10/02 00:21:50;;;;;;;4.58;3.83;;;;;;;15.20;100.00;98856.44;1628542;86;21405;-75
2022/10/02 00:24:20;;;;;;;8.55;4.10;;;;;;;15.23;100.00;98856.41;1651251;86;21048;-75
2022/10/02 00:27:16;;;;;;;5.83;3.85;;;;;;;15.25;100.00;98849.56;1649487;86;21660;-75
2022/10/02 00:29:51;;;;;;;4.60;3.72;;;;;;;15.22;100.00;98820.94;1635302;87;21128;-70
2022/10/02 00:32:57;;;;;;;3.62;3.30;;;;;;;15.21;100.00;98793.04;1610834;87;21092;-70
2022/10/02 00:35:35;;;;;;;7.62;3.60;;;;;;;15.24;100.00;98784.33;1634386;86;21185;-69
2022/10/02 00:38:22;;;;;;;4.08;3.60;;;;;;;15.26;100.00;98775.88;1635347;87;21585;-70
2022/10/02 00:41:13;;;;;;;4.62;3.47;;;;;;;15.29;100.00;98769.88;1645719;86;21048;-71
2022/10/02 00:44:10;;;;;;;3.25;2.90;;;;;;;15.32;100.00;98765.19;1651203;86;21068;-69
2022/10/02 00:46:54;;;;;;;3.80;3.40;;;;;;;15.31;100.00;98762.78;1640190;86;21030;-70
2022/10/02 00:49:50;;;;;;;7.10;3.40;;;;;;;15.27;100.00;98752.56;1635730;87;21165;-70
2022/10/02 00:52:23;;;;;;;3.30;2.70;;;;;;;15.28;100.00;98742.53;1636939;86;21132;-69
2022/10/02 00:55:19;;;;;;;4.37;3.30;;;;;;;15.27;100.00;98736.30;1636201;87;21099;-69
2022/10/02 00:58:03;;;;;;;2.60;2.30;;;;;;;15.27;100.00;98726.02;1650359;85;21118;-70
2022/10/02 01:00:30;;;;;;;5.20;3.20;;;;;;;15.30;100.00;98715.14;1633991;87;21116;-70
2022/10/02 01:03:11;;;;;;;13.10;3.20;;;;;;;15.31;100.00;98702.63;1678443;85;21262;-70
2022/10/02 01:05:38;;;;;;;3.33;3.02;;;;;;;15.27;100.00;98682.67;1630345;87;21637;-69
2022/10/02 01:08:06;;;;;;;3.25;2.30;;;;;;;15.24;100.00;98681.94;1607811;87;21083;-69
2022/10/02 01:10:34;;;;;;;2.55;2.35;;;;;;;15.19;100.00;98682.86;1571049;88;21044;-69
2022/10/02 01:13:02;;;;;;;4.85;3.20;;;;;;;15.13;100.00;98689.48;1612647;88;21071;-70
2022/10/02 01:15:32;;;;;;;3.30;2.85;;;;;;;15.12;100.00;98701.41;1629334;88;21019;-71
2022/10/02 01:18:01;;;;;;;3.33;3.02;;;;;;;15.12;100.00;98694.64;1613586;88;21046;-70
2022/10/02 01:20:51;;;;;;;3.42;2.40;;;;;;;15.13;100.00;98696.80;1661014;86;21060;-67
2022/10/02 01:23:56;;;;;;;3.27;2.98;;;;;;;15.10;100.00;98698.23;1634997;87;21032;-65
2022/10/02 01:26:23;;;;;;;3.92;2.45;;;;;;;15.08;100.00;98686.08;1616744;87;21143;-65
2022/10/02 01:28:49;;;;;;;2.98;2.77;;;;;;;15.09;100.00;98683.63;1604763;88;21672;-66
2022/10/02 01:31:16;;;;;;;4.08;3.08;;;;;;;15.09;100.00;98684.98;1613562;88;22221;-65
2022/10/02 01:33:42;;;;;;;3.75;3.40;;;;;;;15.03;100.00;98681.57;1613448;88;21060;-66
2022/10/02 01:36:11;;;;;;;3.62;3.33;;;;;;;14.99;100.00;98680.58;1629676;88;20993;-66
2022/10/02 01:38:39;;;;;;;2.90;2.70;;;;;;;14.94;100.00;98677.98;1599608;87;21516;-65
2022/10/02 01:41:10;;;;;;;2.85;2.35;;;;;;;14.91;100.00;98672.38;1672131;84;21567;-66
2022/10/02 01:43:46;;;;;;;3.72;3.00;;;;;;;14.85;100.00;98660.84;1686215;84;21067;-67
2022/10/02 01:46:46;;;;;;;4.28;3.42;;;;;;;14.81;100.00;98659.30;1662321;84;21208;-65
2022/10/02 01:49:22;;;;;;;5.90;3.27;;;;;;;14.76;100.00;98651.84;1660631;86;21128;-70
2022/10/02 01:52:06;;;;;;;3.67;3.25;;;;;;;14.71;100.00;98644.63;1660154;86;21585;-70
2022/10/02 01:54:51;;;;;;;12.03;4.35;;;;;;;14.70;100.00;98636.25;1660483;85;21700;-68
2022/10/02 01:57:33;;;;;;;3.20;3.00;;;;;;;14.70;100.00;98632.73;1651870;84;20980;-70
2022/10/02 02:00:07;;;;;;;3.92;3.42;;;;;;;14.65;100.00;98613.34;1563510;91;21047;-70
2022/10/02 02:02:51;;;;;;;6.85;4.40;;;;;;;14.65;100.00;98616.61;1628583;88;21120;-69
2022/10/02 02:05:58;;;;;;;3.85;3.02;;;;;;;14.63;100.00;98599.85;1629148;86;21057;-68
2022/10/02 02:08:58;;;;;;;3.42;3.10;;;;;;;14.59;100.00;98597.51;1622148;85;21190;-68
2022/10/02 02:11:25;;;;;;;3.90;3.17;;;;;;;14.55;100.00;98592.45;1659827;85;21608;-67
2022/10/02 02:14:15;;;;;;;5.67;3.20;;;;;;;14.50;100.00;98587.15;1661992;86;21027;-66
2022/10/02 02:16:46;;;;;;;3.85;3.25;;;;;;;14.47;100.00;98579.65;1660916;86;21044;-70
2022/10/02 02:19:21;;;;;;;4.05;3.40;;;;;;;14.49;100.00;98565.25;1662263;86;21059;-71
2022/10/02 02:22:17;;;;;;;4.87;3.52;;;;;;;14.51;100.00;98569.27;1686979;84;21945;-70
2022/10/02 02:25:12;;;;;;;4.58;3.90;;;;;;;14.50;100.00;98564.95;1682418;84;21087;-71
2022/10/02 02:27:42;;;;;;;5.80;4.53;;;;;;;14.54;100.00;98553.77;1682052;84;21019;-72
2022/10/02 02:30:11;;;;;;;4.70;3.80;;;;;;;14.52;100.00;98547.88;1692599;84;20945;-69
2022/10/02 02:32:45;;;;;;;5.00;4.47;;;;;;;14.51;100.00;98537.35;1639862;84;21154;-69
2022/10/02 02:35:17;;;;;;;3.83;3.52;;;;;;;14.45;100.00;98531.25;1669424;84;21264;-68
2022/10/02 02:37:45;;;;;;;5.40;3.43;;;;;;;14.43;100.00;98527.26;1661707;86;21067;-69
2022/10/02 02:40:16;;;;;;;5.95;3.42;;;;;;;14.43;100.00;98528.61;1647876;84;20956;-68
2022/10/02 02:42:54;;;;;;;3.55;3.25;;;;;;;14.40;100.00;98525.94;1689635;84;21040;-71
2022/10/02 02:45:24;;;;;;;3.47;3.27;;;;;;;14.38;100.00;98512.73;1637171;86;21049;-69
2022/10/02 02:47:53;;;;;;;4.87;3.90;;;;;;;14.37;100.00;98513.03;1644682;85;21133;-68
2022/10/02 02:50:38;;;;;;;4.40;3.70;;;;;;;14.30;100.00;98497.17;1663996;85;21034;-70
2022/10/02 02:53:15;;;;;;;4.20;3.62;;;;;;;14.29;100.00;98488.80;1663544;86;21119;-67
2022/10/02 02:55:47;;;;;;;8.53;3.95;;;;;;;14.30;100.00;98485.55;1660075;85;20964;-67
2022/10/02 02:58:41;;;;;;;4.50;4.10;;;;;;;14.29;100.00;98479.34;1662712;86;21416;-66
2022/10/02 03:01:07;;;;;;;4.83;4.20;;;;;;;14.31;100.00;98477.70;1619247;86;22009;-67
2022/10/02 03:03:34;;;;;;;4.35;3.95;;;;;;;14.33;100.00;98469.55;1685769;84;21048;-69
2022/10/02 03:06:36;;;;;;;7.92;5.05;;;;;;;14.30;100.00;98452.55;1639735;86;21103;-69
2022/10/02 03:09:09;;;;;;;5.50;3.55;;;;;;;14.30;100.00;98452.55;1673889;84;21584;-69
2022/10/02 03:11:50;;;;;;;6.12;4.25;;;;;;;14.31;100.00;98439.83;1658570;86;21044;-68
2022/10/02 03:15:03;;;;;;;10.43;4.47;;;;;;;14.30;100.00;98437.67;1673922;85;21041;-69
2022/10/02 03:17:51;;;;;;;6.30;4.15;;;;;;;14.29;100.00;98433.95;1666355;85;21007;-67
2022/10/02 03:20:32;;;;;;;4.67;3.60;;;;;;;14.26;100.00;98425.87;1660867;86;21035;-68
2022/10/02 03:23:46;;;;;;;4.47;3.25;;;;;;;14.26;100.00;98427.77;1672793;85;20997;-69
2022/10/02 03:26:17;;;;;;;5.20;3.77;;;;;;;14.27;100.00;98411.25;1600973;88;21067;-68
2022/10/02 03:28:50;;;;;;;4.30;3.90;;;;;;;14.25;100.00;98400.47;1614599;88;21255;-69
2022/10/02 03:31:17;;;;;;;5.83;5.20;;;;;;;14.22;100.00;98386.22;1657460;85;21053;-66
2022/10/02 03:33:44;;;;;;;5.28;3.50;;;;;;;14.21;100.00;98390.02;1675754;84;21009;-70
2022/10/02 03:36:13;;;;;;;3.72;3.35;;;;;;;14.22;100.00;98387.03;1677817;85;21628;-68
2022/10/02 03:38:40;;;;;;;5.42;4.28;;;;;;;14.25;100.00;98393.16;1665787;85;21056;-68
2022/10/02 03:41:06;;;;;;;6.37;3.20;;;;;;;14.25;100.00;98401.28;1659663;86;21162;-67
2022/10/02 03:43:34;;;;;;;4.90;3.90;;;;;;;14.24;100.00;98415.13;1660512;85;21114;-68
2022/10/02 03:46:01;;;;;;;4.20;3.83;;;;;;;14.22;100.00;98425.44;1660815;85;21627;-69
2022/10/02 03:48:28;;;;;;;3.95;3.62;;;;;;;14.22;100.00;98414.62;1659760;86;21043;-68
2022/10/02 03:50:54;;;;;;;3.55;3.17;;;;;;;14.21;100.00;98404.90;1661148;86;21071;-69
2022/10/02 03:53:23;;;;;;;5.45;3.10;;;;;;;14.14;100.00;98389.66;1661098;86;21154;-68
2022/10/02 03:55:54;;;;;;;8.15;3.55;;;;;;;14.09;100.00;98377.05;1638041;86;21068;-67
2022/10/02 03:58:21;;;;;;;3.83;2.90;;;;;;;14.08;100.00;98384.11;1638214;87;20941;-69
2022/10/02 04:01:00;;;;;;;2.75;2.55;;;;;;;14.07;100.00;98398.17;1668256;86;21019;-66
2022/10/02 04:03:31;;;;;;;3.58;3.27;;;;;;;14.08;100.00;98431.42;1692808;84;21060;-67
2022/10/02 04:06:27;;;;;;;3.57;3.23;;;;;;;14.13;100.00;98444.83;1671112;84;21079;-66
2022/10/02 04:08:59;;;;;;;8.58;5.15;;;;;;;14.14;100.00;98423.45;1664759;84;20987;-70
2022/10/02 04:11:52;;;;;;;7.95;4.42;;;;;;;14.09;100.00;98415.45;1667067;84;21208;-68
2022/10/02 04:14:33;;;;;;;6.60;4.27;;;;;;;14.09;100.00;98408.15;1656283;84;21026;-68
2022/10/02 04:17:15;;;;;;;5.05;4.00;;;;;;;14.09;100.00;98392.48;1656621;86;21035;-68
2022/10/02 04:20:08;;;;;;;4.83;4.28;;;;;;;14.08;100.00;98378.70;1660289;85;21325;-66
2022/10/02 04:22:42;;;;;;;6.17;3.93;;;;;;;14.07;100.00;98382.50;1635434;86;21052;-67
2022/10/02 04:25:19;;;;;;;4.28;3.92;;;;;;;14.02;100.00;98365.05;1635942;86;20956;-67
2022/10/02 04:28:16;;;;;;;5.47;3.47;;;;;;;13.98;100.00;98356.20;1636445;87;21032;-67
2022/10/02 04:30:43;;;;;;;4.42;4.03;;;;;;;13.95;100.00;98339.25;1659867;86;21099;-65
2022/10/02 04:33:16;;;;;;;4.75;3.95;;;;;;;13.96;100.00;98344.88;1663806;85;21091;-68
2022/10/02 04:36:28;;;;;;;4.72;4.22;;;;;;;13.96;100.00;98342.18;1650636;85;20974;-68
2022/10/02 04:39:00;;;;;;;6.45;3.72;;;;;;;13.98;100.00;98331.87;1620163;87;21135;-68
2022/10/02 04:41:32;;;;;;;26.80;7.15;;;;;;;13.97;100.00;98323.52;1634515;86;21100;-68
2022/10/02 04:44:04;;;;;;;8.20;4.90;;;;;;;13.94;100.00;98304.41;1663519;85;21193;-69
2022/10/02 04:46:49;;;;;;;17.27;5.28;;;;;;;13.97;100.00;98308.64;1663622;85;25005;-68
2022/10/02 04:49:42;;;;;;;5.25;4.85;;;;;;;14.02;100.00;98313.13;1662816;85;21004;-68
2022/10/02 04:52:47;;;;;;;7.67;5.42;;;;;;;14.02;100.00;98310.43;1644110;85;21585;-68
2022/10/02 04:55:34;;;;;;;5.80;5.22;;;;;;;13.98;100.00;98304.84;1642279;85;21035;-67
2022/10/02 04:58:41;;;;;;;7.40;4.47;;;;;;;13.97;100.00;98299.73;1635356;87;21181;-64
2022/10/02 05:01:52;;;;;;;4.67;4.15;;;;;;;14.01;100.00;98285.05;1635405;87;22372;-67
2022/10/02 05:05:01;;;;;;;8.13;5.50;;;;;;;14.07;100.00;98280.58;1657231;86;21544;-69
2022/10/02 05:08:04;;;;;;;8.85;4.40;;;;;;;14.07;100.00;98283.28;1637146;87;21081;-67
2022/10/02 05:11:22;;;;;;;4.95;4.47;;;;;;;14.13;100.00;98285.31;1651083;85;21036;-67
2022/10/02 05:14:16;;;;;;;6.47;5.70;;;;;;;14.12;100.00;98288.56;1655481;84;21080;-65
2022/10/02 05:17:06;;;;;;;;;;;;;;;14.10;100.00;98271.84;1669941;86;21230;-68
2022/10/02 05:20:06;;;;;;;7.15;6.08;;;;;;;14.12;100.00;98271.55;1668151;86;20197;-67
2022/10/02 05:22:52;;;;;;;13.03;5.60;;;;;;;14.19;100.00;98257.86;1667892;86;21043;-67
2022/10/02 05:26:02;;;;;;;5.37;4.65;;;;;;;14.30;100.00;98240.80;1666922;84;21532;-68
2022/10/02 05:28:57;;;;;;;7.40;5.75;;;;;;;14.35;100.00;98227.15;1669420;85;21049;-67
2022/10/02 05:31:41;;;;;;;6.10;5.15;;;;;;;14.35;100.00;98220.39;1680253;85;21230;-67
2022/10/02 05:34:44;;;;;;;7.30;5.30;;;;;;;14.30;100.00;98215.91;1641081;87;21181;-68
2022/10/02 05:37:25;;;;;;;10.20;7.15;;;;;;;14.28;100.00;98214.09;1660349;85;21133;-68
2022/10/02 05:40:03;;;;;;;7.25;5.47;;;;;;;14.35;100.00;98206.86;1667699;84;21035;-68
2022/10/02 05:42:39;;;;;;;8.73;7.83;;;;;;;14.44;100.00;98206.93;1667160;84;21098;-68
2022/10/02 05:45:29;;;;;;;7.25;5.92;;;;;;;14.43;100.00;98211.57;1667727;86;21285;-69
2022/10/02 05:48:05;;;;;;;7.28;6.50;;;;;;;14.44;100.00;98213.14;1668389;85;21111;-66
2022/10/02 05:50:34;;;;;;;15.45;9.45;;;;;;;14.43;100.00;98214.27;1665246;84;21648;-68
2022/10/02 05:53:24;;;;;;;18.75;15.23;;;;;;;14.48;100.00;98209.28;1695902;84;20944;-68
2022/10/02 05:55:59;;;;;;;15.28;13.72;;;;;;;14.53;100.00;98210.50;1677428;84;21194;-68
2022/10/02 05:58:39;;;;;;;9.95;8.98;;;;;;;14.64;100.00;98208.55;1635767;86;21820;-67
2022/10/02 06:01:13;;;;;;;13.40;10.28;;;;;;;14.73;100.00;98207.22;1637812;87;21745;-67
2022/10/02 06:04:18;;;;;;;10.18;8.98;;;;;;;14.72;100.00;98201.59;1636519;87;21163;-67
2022/10/02 06:06:47;;;;;;;;;;;;;;;14.68;100.00;98193.83;1639178;87;21590;-66
2022/10/02 06:09:38;;;;;;;7.30;6.70;;;;;;;14.73;100.00;98198.55;1636493;87;20175;-68
2022/10/02 06:12:25;;;;;;;9.15;7.12;;;;;;;14.72;100.00;98191.53;1636186;87;22059;-65
2022/10/02 06:14:55;;;;;;;11.08;8.53;;;;;;;14.71;100.00;98183.75;1650008;85;32903;-67
2022/10/02 06:17:29;;;;;;;9.95;7.90;;;;;;;14.68;100.00;98178.39;1664178;86;21149;-70
2022/10/02 06:20:15;;;;;;;8.60;7.15;;;;;;;14.66;100.00;98180.63;1659267;86;21059;-69
2022/10/02 06:22:53;;;;;;;8.65;7.25;;;;;;;14.67;100.00;98177.38;1666278;86;21630;-69
2022/10/02 06:25:33;;;;;;;9.25;8.25;;;;;;;14.68;100.00;98166.77;1662102;84;21254;-67
2022/10/02 06:28:17;;;;;;;10.38;9.30;;;;;;;14.67;100.00;98168.70;1667907;84;21055;-67
2022/10/02 06:30:48;;;;;;;10.15;8.28;;;;;;;14.66;100.00;98164.40;1667779;84;21032;-65
2022/10/02 06:33:22;;;;;;;10.23;9.08;;;;;;;14.76;100.00;98164.11;1673130;84;21063;-68
2022/10/02 06:36:10;;;;;;;14.75;8.75;;;;;;;14.80;100.00;98151.54;1676823;83;21060;-68
2022/10/02 06:39:22;;;;;;;9.13;8.23;;;;;;;14.89;100.00;98158.88;1640549;84;21244;-68
2022/10/02 06:42:06;;;;;;;9.78;8.80;;;;;;;14.96;100.00;98149.75;1634135;86;20984;-70
2022/10/02 06:45:11;;;;;;;15.53;8.80;;;;;;;15.08;100.00;98143.95;1629660;86;21107;-67
2022/10/02 06:48:04;;;;;;;19.73;9.65;;;;;;;15.19;100.00;98141.73;1630510;87;21047;-68
2022/10/02 06:50:47;;;;;;;12.73;8.65;;;;;;;15.30;100.00;98131.39;1640641;87;21603;-69
2022/10/02 06:53:29;;;;;;;9.00;8.10;;;;;;;15.31;100.00;98130.25;1633866;87;21152;-68
2022/10/02 06:56:42;;;;;;;12.95;8.08;;;;;;;15.25;100.00;98129.64;1640117;86;21111;-67
2022/10/02 06:59:49;;;;;;;9.13;7.90;;;;;;;15.21;100.00;98126.74;1637265;86;21013;-68
2022/10/02 07:02:24;;;;;;;9.75;8.68;;;;;;;15.22;100.00;98124.84;1637868;87;21465;-68
2022/10/02 07:05:15;;;;;;;8.73;7.70;;;;;;;15.24;100.00;98120.71;1642596;86;21505;-71
2022/10/02 07:07:56;;;;;;;11.93;7.85;;;;;;;15.32;100.00;98121.81;1611174;86;21173;-67
2022/10/02 07:10:41;;;;;;;10.13;9.30;;;;;;;15.45;100.00;98111.36;1696883;83;21350;-69
2022/10/02 07:13:34;;;;;;;8.80;8.00;;;;;;;15.53;100.00;98109.26;1676578;84;21074;-67
2022/10/02 07:16:12;;;;;;;9.28;8.38;;;;;;;15.57;100.00;98102.08;1668057;86;21069;-68
2022/10/02 07:19:06;;;;;;;8.38;7.50;;;;;;;15.48;100.00;98099.11;1658193;84;21137;-67
2022/10/02 07:22:04;;;;;;;10.72;9.80;;;;;;;15.36;100.00;98088.91;1622603;85;21145;-67
2022/10/02 07:24:59;;;;;;;9.68;8.68;;;;;;;15.21;100.00;98092.89;1672807;85;21050;-67
2022/10/02 07:27:38;;;;;;;14.98;10.48;;;;;;;15.08;100.00;98084.94;1658269;85;21082;-67
2022/10/02 07:30:08;;;;;;;10.28;9.25;;;;;;;14.99;100.00;98085.48;1668027;84;21127;-68
2022/10/02 07:33:12;;;;;;;9.78;8.88;;;;;;;15.01;100.00;98073.21;1689504;84;21039;-67
2022/10/02 07:36:03;;;;;;;10.82;9.83;;;;;;;15.10;100.00;98075.95;1534186;90;21168;-67
2022/10/02 07:38:50;;;;;;;11.05;7.60;;;;;;;15.12;100.00;98073.14;1678801;84;21051;-68
2022/10/02 07:41:47;;;;;;;12.60;10.10;;;;;;;15.14;100.00;98075.55;1637892;87;21060;-64
2022/10/02 07:44:43;;;;;;;15.93;10.30;;;;;;;15.08;100.00;98089.79;1604681;87;21009;-66
2022/10/02 07:47:52;;;;;;;14.03;9.58;;;;;;;15.08;100.00;98078.96;1636660;87;21148;-66
2022/10/02 07:50:51;;;;;;;11.15;10.10;;;;;;;15.08;100.00;98070.84;1636737;87;21755;-68
2022/10/02 07:53:40;;;;;;;11.75;10.55;;;;;;;15.14;100.00;98080.41;1637001;87;21019;-67
2022/10/02 07:56:10;;;;;;;12.35;10.10;;;;;;;15.21;100.00;98078.55;1637083;86;21066;-66
2022/10/02 07:58:45;;;;;;;11.28;9.48;;;;;;;15.28;100.00;98083.74;1637736;86;21048;-66
2022/10/02 08:01:19;;;;;;;15.28;13.68;;;;;;;15.29;100.00;98077.77;1634981;87;21146;-68
2022/10/02 08:03:56;;;;;;;13.50;12.20;;;;;;;15.26;100.00;98073.77;1637535;87;21163;-68
2022/10/02 08:06:23;;;;;;;14.00;12.50;;;;;;;15.23;100.00;98070.36;1664267;86;21458;-65
2022/10/02 08:09:15;;;;;;;14.50;13.20;;;;;;;15.22;100.00;98070.67;1665319;86;21678;-67
2022/10/02 08:11:50;;;;;;;19.07;15.20;;;;;;;15.20;100.00;98061.50;1644161;86;21024;-69
2022/10/02 08:14:39;;;;;;;14.80;13.38;;;;;;;15.18;100.00;98048.86;1637469;86;21540;-69
2022/10/02 08:17:36;;;;;;;15.35;13.40;;;;;;;15.16;100.00;98037.53;1649939;86;21240;-69
2022/10/02 08:20:16;;;;;;;18.73;15.53;;;;;;;15.15;100.00;98038.67;1622886;86;21118;-67
2022/10/02 08:22:47;;;;;;;14.85;13.28;;;;;;;15.15;100.00;98025.14;1667008;84;20976;-72
2022/10/02 08:25:24;;;;;;;15.13;13.75;;;;;;;15.15;100.00;98020.27;1649444;84;21028;-66
2022/10/02 08:28:18;;;;;;;21.35;13.60;;;;;;;15.14;100.00;98014.61;1636404;87;21633;-70
2022/10/02 08:30:45;;;;;;;12.78;11.48;;;;;;;15.13;100.00;98007.60;1619111;87;21660;-70
2022/10/02 08:33:20;;;;;;;13.90;12.45;;;;;;;15.14;100.00;98014.06;1636259;87;21016;-68
2022/10/02 08:36:11;;;;;;;9.83;8.93;;;;;;;15.15;100.00;98003.47;1636415;87;21007;-67
2022/10/02 08:38:45;;;;;;;13.10;11.75;;;;;;;15.19;100.00;98011.19;1654165;86;21055;-68
2022/10/02 08:41:40;;;;;;;10.35;9.35;;;;;;;15.20;100.00;98007.34;1640746;86;21455;-69
2022/10/02 08:44:40;;;;;;;10.32;9.10;;;;;;;15.23;100.00;98001.86;1636659;87;21321;-68
2022/10/02 08:47:36;;;;;;;11.22;10.13;;;;;;;15.28;100.00;98006.55;1676941;84;21050;-67
2022/10/02 08:50:28;;;;;;;9.68;8.88;;;;;;;15.32;100.00;97993.16;1665226;84;21090;-66
2022/10/02 08:53:38;;;;;;;11.22;10.13;;;;;;;15.35;100.00;97997.91;1665919;86;21115;-68
2022/10/02 08:56:19;;;;;;;11.30;9.68;;;;;;;15.35;100.00;98003.33;1649009;86;21115;-69
2022/10/02 08:59:25;;;;;;;7.75;7.15;;;;;;;15.37;100.00;97984.86;1678468;84;21171;-67
2022/10/02 09:02:47;;;;;;;8.83;8.03;;;;;;;15.40;100.00;97993.69;1668300;86;21059;-67
2022/10/02 09:05:57;;;;;;;6.62;6.03;;;;;;;15.44;100.00;97992.50;1648925;86;21120;-68
2022/10/02 09:08:56;;;;;;;8.48;7.28;;;;;;;15.49;100.00;97994.45;1657199;84;21109;-69
2022/10/02 09:11:49;;;;;;;8.90;7.08;;;;;;;15.57;100.00;97986.11;1667955;85;21552;-69
2022/10/02 09:14:47;;;;;;;5.70;5.20;;;;;;;15.69;100.00;97988.37;1668410;86;21087;-68
2022/10/02 09:17:19;;;;;;;4.75;4.35;;;;;;;15.80;100.00;97980.68;1672404;84;21319;-69
2022/10/02 09:20:30;;;;;;;4.62;4.20;;;;;;;15.86;100.00;97985.36;1673397;84;20972;-69
2022/10/02 09:23:31;;;;;;;4.97;3.20;;;;;;;15.89;100.00;97974.66;1664429;86;21022;-68
2022/10/02 09:26:18;;;;;;;3.17;2.92;;;;;;;15.93;100.00;97980.21;1667119;86;21014;-68
2022/10/02 09:29:43;;;;;;;6.70;4.30;;;;;;;15.96;100.00;97974.95;1691159;84;21217;-67
2022/10/02 09:32:28;;;;;;;;;;;;;;;15.99;100.00;97974.84;1690033;84;21603;-68
2022/10/02 09:35:15;;;;;;;3.15;2.83;;;;;;;15.96;100.00;97975.52;1665207;84;20177;-68
2022/10/02 09:38:10;;;;;;;2.90;2.40;;;;;;;15.92;100.00;97982.72;1666832;86;21301;-67
2022/10/02 09:41:14;;;;;;;2.55;2.35;;;;;;;15.93;100.00;97978.30;1663732;86;21048;-67
2022/10/02 09:43:49;;;;;;;2.75;2.55;;;;;;;15.94;100.00;97998.08;1637813;86;21277;-70
2022/10/02 09:47:04;;;;;;;2.02;1.92;;;;;;;15.91;100.00;97988.70;1666071;84;21035;-69
2022/10/02 09:50:00;;;;;;;3.00;1.90;;;;;;;15.88;100.00;97992.59;1665819;86;21079;-71
2022/10/02 09:53:01;;;;;;;1.90;1.80;;;;;;;15.87;100.00;97979.63;1666745;86;21612;-70
2022/10/02 09:55:44;;;;;;;2.15;1.62;;;;;;;15.87;100.00;97986.41;1667887;86;21568;-68
2022/10/02 09:58:50;;;;;;;1.80;1.47;;;;;;;15.88;100.00;97996.66;1668026;86;21168;-68
2022/10/02 10:01:38;;;;;;;2.40;1.40;;;;;;;15.88;100.00;97982.55;1668793;84;21173;-69
2022/10/02 10:04:32;;;;;;;1.65;1.55;;;;;;;15.87;100.00;97980.98;1651825;86;22254;-69
2022/10/02 10:07:42;;;;;;;1.40;1.30;;;;;;;15.91;100.00;97996.03;1665854;84;21598;-69
2022/10/02 10:10:51;;;;;;;1.75;1.65;;;;;;;15.94;100.00;97979.90;1668209;86;21088;-68
2022/10/02 10:13:45;;;;;;;1.22;1.12;;;;;;;15.95;100.00;97999.12;1641103;87;21279;-69
2022/10/02 10:16:51;;;;;;;1.55;1.45;;;;;;;15.92;100.00;97977.29;1650451;86;21135;-72
2022/10/02 10:19:44;;;;;;;1.60;1.50;;;;;;;15.90;100.00;97990.36;1637736;87;21008;-67
2022/10/02 10:22:42;;;;;;;1.37;1.30;;;;;;;15.90;100.00;97991.16;1667148;84;21531;-68
2022/10/02 10:25:37;;;;;;;1.77;1.30;;;;;;;15.86;100.00;97984.02;1640216;84;21623;-68
2022/10/02 10:28:22;;;;;;;1.20;1.20;;;;;;;15.82;100.00;98001.50;1666772;84;21266;-69
2022/10/02 10:31:19;;;;;;;1.15;1.15;;;;;;;15.77;100.00;97992.19;1687058;84;20960;-68
2022/10/02 10:34:35;;;;;;;1.20;1.20;;;;;;;15.76;100.00;98000.07;1653640;86;21047;-71
2022/10/02 10:40:29;;;;;;;1.85;1.65;;;;;;;15.76;100.00;98000.07;1655419;85;21104;-69
2022/10/02 10:43:50;;;;;;;3.52;1.10;;;;;;;15.76;100.00;98013.63;1633975;87;21179;-69
2022/10/02 10:46:30;;;;;;;1.27;1.25;;;;;;;15.74;100.00;98022.62;1649504;85;21068;-67
2022/10/02 10:49:31;;;;;;;1.72;1.62;;;;;;;15.76;100.00;98007.41;1648144;86;21067;-70
2022/10/02 10:52:10;;;;;;;1.65;1.55;;;;;;;15.77;100.00;98004.38;1659781;86;21079;-67
2022/10/02 10:55:05;;;;;;;1.90;1.77;;;;;;;15.76;100.00;98015.53;1675012;85;21119;-68
2022/10/02 10:58:04;;;;;;;2.45;1.75;;;;;;;15.74;100.00;97999.59;1586559;89;21175;-68
2022/10/02 11:01:12;;;;;;;9.33;4.08;;;;;;;15.74;100.00;97999.59;1605481;89;21096;-68
2022/10/02 11:04:23;;;;;;;2.12;1.80;;;;;;;15.77;100.00;98002.23;1634673;86;21091;-70
2022/10/02 11:07:12;;;;;;;2.40;2.20;;;;;;;15.83;100.00;97998.20;1662757;84;21002;-69
2022/10/02 11:10:04;;;;;;;1.95;1.85;;;;;;;15.86;100.00;97990.79;1666851;86;20987;-73
2022/10/02 11:12:40;;;;;;;2.08;1.60;;;;;;;15.89;100.00;97984.70;1666726;84;21334;-77
2022/10/02 11:15:38;;;;;;;1.70;1.60;;;;;;;15.92;100.00;97986.78;1680039;84;21495;-75
2022/10/02 11:18:49;;;;;;;2.35;1.70;;;;;;;15.92;100.00;97984.07;1691498;84;21098;-75
2022/10/02 11:21:47;;;;;;;1.67;1.57;;;;;;;15.92;99.76;97978.06;1664796;84;21100;-76
2022/10/02 11:25:09;;;;;;;1.77;1.67;;;;;;;15.92;99.48;97988.14;1637289;86;21096;-76
2022/10/02 11:28:11;;;;;;;1.98;1.55;;;;;;;15.90;99.78;97996.59;1667261;84;21551;-80
2022/10/02 11:30:53;;;;;;;3.62;2.72;;;;;;;15.75;100.00;98005.81;1686486;84;20983;-77
2022/10/02 11:33:49;;;;;;;4.80;2.22;;;;;;;15.47;99.27;98017.58;1659447;84;21038;-79
2022/10/02 11:36:49;;;;;;;1.57;1.47;;;;;;;15.26;99.15;98020.16;1639851;86;21109;-77
2022/10/02 11:39:45;;;;;;;1.10;1.10;;;;;;;15.08;99.67;98030.78;1624560;87;21072;-73
2022/10/02 11:42:50;;;;;;;1.40;1.30;;;;;;;14.84;98.59;98010.95;1636206;86;21460;-70
2022/10/02 11:45:54;;;;;;;1.85;0.80;;;;;;;14.60;98.40;98007.92;1650065;86;21048;-69
2022/10/02 11:48:57;;;;;;;0.90;0.90;;;;;;;14.38;98.88;98004.25;1640595;86;21714;-71
2022/10/02 11:51:47;;;;;;;2.02;1.85;;;;;;;14.25;100.00;98002.42;1637970;87;21071;-71
2022/10/02 11:54:28;;;;;;;2.30;1.15;;;;;;;14.18;100.00;98014.81;1640371;87;21071;-73
2022/10/02 11:57:07;;;;;;;1.20;1.10;;;;;;;14.09;100.00;98001.28;1641418;86;21341;-69
2022/10/02 11:59:49;;;;;;;1.95;1.37;;;;;;;13.98;100.00;98004.81;1640712;87;20993;-77
2022/10/02 12:02:25;;;;;;;2.83;1.10;;;;;;;13.93;100.00;98025.78;1639530;87;20925;-72
2022/10/02 12:05:44;;;;;;;1.40;1.30;;;;;;;13.87;100.00;98020.27;1668071;84;21014;-69
2022/10/02 12:08:33;;;;;;;2.45;0.90;;;;;;;13.85;100.00;98007.64;1640936;85;21130;-70
2022/10/02 12:11:39;;;;;;;1.20;1.07;;;;;;;13.80;100.00;98050.45;1620377;84;21047;-72
2022/10/02 12:14:23;;;;;;;1.00;1.00;;;;;;;13.70;100.00;98025.05;1669576;84;21003;-72
2022/10/02 12:17:34;;;;;;;1.02;1.02;;;;;;;13.56;100.00;98027.59;1686848;84;20960;-69
2022/10/02 12:26:59;;;;;;;2.45;1.35;;;;;;;13.29;100.00;98019.87;1667841;84;21122;-69
2022/10/02 12:30:03;;;;;;;1.20;1.10;;;;;;;13.22;100.00;98016.03;1677323;84;20912;-70
2022/10/02 12:33:07;;;;;;;1.00;0.98;;;;;;;13.15;100.00;98038.59;1695706;84;21583;-69
2022/10/02 12:36:04;;;;;;;4.80;1.10;;;;;;;13.04;100.00;98041.50;1696546;84;21060;-72
2022/10/02 12:39:12;;;;;;;2.98;1.17;;;;;;;12.93;100.00;98033.97;1696722;84;21076;-72
2022/10/02 12:41:49;;;;;;;1.00;1.00;;;;;;;12.87;100.00;98032.48;1671349;84;21748;-69
2022/10/02 12:44:38;;;;;;;2.08;1.20;;;;;;;12.79;99.77;98034.56;1666703;86;20964;-70
2022/10/02 12:47:16;;;;;;;0.80;0.80;;;;;;;12.73;98.99;98070.84;1666743;86;21122;-71
2022/10/02 12:49:51;;;;;;;2.22;0.93;;;;;;;12.62;98.27;98043.28;1666864;84;21565;-73
2022/10/02 12:53:03;;;;;;;1.00;1.00;;;;;;;12.55;97.93;98026.73;1665043;86;21079;-69
2022/10/02 12:56:04;;;;;;;1.70;1.10;;;;;;;12.51;98.14;98026.55;1666999;84;21158;-71
2022/10/02 12:58:55;;;;;;;0.82;0.82;;;;;;;12.51;98.29;98042.73;1666992;86;21051;-68
2022/10/02 13:02:04;;;;;;;4.22;1.05;;;;;;;12.42;97.64;98070.13;1666395;86;21007;-72
2022/10/02 13:05:12;;;;;;;1.00;1.00;;;;;;;12.40;97.99;98015.73;1666535;86;21059;-69